Time;durP1;ratioP1;P1;durP2;ratioP2;P2;SDS_P1;SDS_P2;PMS_P1;PMS_P2;Temp;Humidity;BMP_temperature;BMP_pressure;BME280_temperature;BME280_humidity;BME280_pressure;Samples;Min_cycle;Max_cycle;Signal;HPM_P1;HPM_P2
2021/10/05 00:01:06;;;;;;;;;2.00;0.00;;;;;16.43;68.43;100809.84;4935303;28;56414;-76
2021/10/05 00:03:31;;;;;;;;;2.00;1.00;;;;;16.42;68.69;100805.41;4926992;28;45297;-76
2021/10/05 00:05:56;;;;;;;;;1.00;1.00;;;;;16.40;68.65;100813.41;4934206;28;45389;-75
2021/10/05 00:08:22;;;;;;;;;2.00;0.33;;;;;16.38;68.28;100809.03;4926117;28;53161;-76
2021/10/05 00:10:47;;;;;;;;;2.00;1.00;;;;;16.37;68.59;100796.59;4933235;28;45432;-76
2021/10/05 00:13:12;;;;;;;;;2.33;0.00;;;;;16.31;68.41;100791.38;4931196;28;51139;-76
2021/10/05 00:15:38;;;;;;;;;0.67;0.67;;;;;16.29;68.83;100787.81;4930879;28;45264;-76
2021/10/05 00:18:03;;;;;;;;;1.33;1.00;;;;;16.31;68.55;100786.03;4931215;28;46145;-76
2021/10/05 00:20:29;;;;;;;;;4.00;1.00;;;;;16.28;68.99;100786.94;4930544;28;45288;-76
2021/10/05 00:22:54;;;;;;;;;1.00;1.00;;;;;16.22;68.85;100774.56;4931567;28;45397;-75
2021/10/05 00:25:20;;;;;;;;;3.00;1.00;;;;;16.22;69.01;100771.91;4930977;28;45915;-76
2021/10/05 00:27:45;;;;;;;;;0.00;0.00;;;;;16.24;69.04;100779.88;4924463;28;50906;-76
2021/10/05 00:30:11;;;;;;;;;0.67;0.67;;;;;16.21;68.70;100785.25;4924398;28;50388;-75
2021/10/05 00:32:36;;;;;;;;;1.00;1.00;;;;;16.20;69.24;100783.50;4936789;28;45336;-76
2021/10/05 00:35:02;;;;;;;;;2.00;1.00;;;;;16.18;68.83;100778.19;4937548;28;45430;-76
2021/10/05 00:37:28;;;;;;;;;3.00;1.00;;;;;16.15;69.22;100780.03;4930644;28;46315;-76
2021/10/05 00:39:53;;;;;;;;;0.00;0.00;;;;;16.15;69.28;100774.69;4930363;28;60089;-76
2021/10/05 00:42:18;;;;;;;;;2.00;0.33;;;;;16.13;69.37;100782.69;4925712;28;56413;-75
2021/10/05 00:44:44;;;;;;;;;0.33;0.33;;;;;16.12;69.23;100764.94;4930320;28;45536;-76
2021/10/05 00:47:11;;;;;;;;;1.67;1.00;;;;;16.06;69.37;100751.69;4923158;28;57409;-75
2021/10/05 00:49:37;;;;;;;;;2.00;1.00;;;;;16.09;69.20;100765.00;4924343;28;45511;-76
2021/10/05 00:52:03;;;;;;;;;0.00;0.00;;;;;16.07;69.64;100757.91;4935948;28;45404;-77
2021/10/05 00:54:34;;;;;;;;;2.00;0.00;;;;;16.03;69.67;100751.72;4924442;28;45337;-75
2021/10/05 00:56:59;;;;;;;;;0.67;0.00;;;;;16.04;69.48;100757.97;4927853;28;47523;-76
2021/10/05 00:59:24;;;;;;;;;1.00;0.00;;;;;16.04;69.48;100753.53;4930258;28;48063;-75
2021/10/05 01:01:50;;;;;;;;;5.00;1.00;;;;;16.02;69.52;100754.41;4927803;28;57382;-76
2021/10/05 01:04:15;;;;;;;;;2.00;1.00;;;;;15.96;69.63;100742.06;4933716;28;56977;-75
2021/10/05 01:06:53;;;;;;;;;1.00;1.00;;;;;15.97;69.72;100758.03;4923740;28;59824;-76
2021/10/05 01:09:19;;;;;;;;;1.00;1.00;;;;;16.00;69.82;100740.25;4931464;28;45397;-76
2021/10/05 01:11:44;;;;;;;;;1.33;1.00;;;;;15.98;69.58;100746.50;4909673;28;55414;-75
2021/10/05 01:14:09;;;;;;;;;1.00;0.00;;;;;15.93;69.41;100737.69;4923661;28;55001;-76
2021/10/05 01:16:35;;;;;;;;;0.67;0.00;;;;;15.98;69.62;100740.28;4929448;28;48630;-76
2021/10/05 01:19:00;;;;;;;;;1.67;0.00;;;;;15.96;69.74;100729.63;4930690;28;51349;-76
2021/10/05 01:21:25;;;;;;;;;0.33;0.33;;;;;15.96;69.66;100723.44;4936495;28;45341;-76
2021/10/05 01:23:51;;;;;;;;;2.00;1.00;;;;;15.93;69.67;100720.81;4935736;28;53399;-75
2021/10/05 01:26:16;;;;;;;;;0.00;0.00;;;;;15.92;69.82;100717.25;4933757;28;64252;-76
2021/10/05 01:28:42;;;;;;;;;0.33;0.33;;;;;15.90;70.01;100708.41;4933971;28;59012;-77
2021/10/05 01:31:07;;;;;;;;;2.00;1.00;;;;;15.89;69.88;100705.78;4925359;28;53773;-76
2021/10/05 01:33:32;;;;;;;;;4.33;1.00;;;;;15.86;69.74;100698.69;4932165;28;54257;-76
2021/10/05 01:35:58;;;;;;;;;4.00;1.00;;;;;15.86;70.24;100695.16;4930080;28;59162;-76
2021/10/05 01:38:23;;;;;;;;;3.33;1.00;;;;;15.79;70.20;100680.16;4933382;28;59653;-76
2021/10/05 01:40:49;;;;;;;;;3.67;1.33;;;;;15.81;69.87;100678.34;4925808;28;53728;-76
2021/10/05 01:43:14;;;;;;;;;3.00;1.00;;;;;15.79;70.32;100674.84;4923918;28;46276;-76
2021/10/05 01:45:40;;;;;;;;;3.00;1.00;;;;;15.79;70.29;100673.06;4927069;28;58536;-76
2021/10/05 01:48:07;;;;;;;;;0.00;0.00;;;;;15.76;70.63;100667.75;4933605;28;45364;-76
2021/10/05 01:50:32;;;;;;;;;0.00;0.00;;;;;15.71;70.22;100654.53;4926457;28;45438;-76
2021/10/05 01:52:57;;;;;;;;;2.00;0.00;;;;;15.74;70.43;100655.38;4923775;28;45579;-76
2021/10/05 01:55:23;;;;;;;;;4.00;1.00;;;;;15.73;70.36;100643.84;4925915;28;46605;-76
2021/10/05 01:57:48;;;;;;;;;3.00;0.00;;;;;15.71;70.32;100638.56;4930312;28;45515;-77
2021/10/05 02:00:14;;;;;;;;;3.00;0.00;;;;;15.69;70.75;100640.34;4925813;28;45442;-75
2021/10/05 02:02:39;;;;;;;;;2.00;0.00;;;;;15.65;70.76;100635.06;4928075;28;53267;-77
2021/10/05 02:05:05;;;;;;;;;1.00;1.00;;;;;15.68;70.70;100643.91;4926271;28;46450;-76
2021/10/05 02:07:32;;;;;;;;;2.00;0.33;;;;;15.65;70.82;100635.97;4934902;28;47209;-75
2021/10/05 02:09:57;;;;;;;;;2.00;0.00;;;;;15.64;70.91;100631.53;4925517;28;45399;-77
2021/10/05 02:12:22;;;;;;;;;2.67;1.00;;;;;15.63;71.14;100629.78;4932671;28;45314;-76
2021/10/05 02:14:48;;;;;;;;;1.00;1.00;;;;;15.64;70.75;100618.22;4926600;28;45723;-75
2021/10/05 02:17:14;;;;;;;;;1.67;0.67;;;;;15.64;70.89;100607.59;4930336;28;57197;-75
2021/10/05 02:19:39;;;;;;;;;2.67;1.00;;;;;15.68;71.16;100603.09;4923498;28;45351;-76
2021/10/05 02:22:05;;;;;;;;;1.00;1.00;;;;;15.69;70.83;100602.19;4921811;28;51927;-76
2021/10/05 02:24:41;;;;;;;;;2.00;1.00;;;;;15.64;70.82;100588.06;4935488;28;45616;-76
2021/10/05 02:27:07;;;;;;;;;1.00;1.00;;;;;15.69;70.69;100596.88;4934952;28;46556;-76
2021/10/05 02:29:36;;;;;;;;;1.00;1.00;;;;;15.69;71.55;100589.78;4928303;28;45396;-75
2021/10/05 02:32:03;;;;;;;;;2.00;1.00;;;;;15.66;71.21;100576.53;4929879;28;45347;-76
2021/10/05 02:34:28;;;;;;;;;2.00;0.00;;;;;15.70;70.92;100586.19;4935469;28;47134;-76
2021/10/05 02:36:53;;;;;;;;;1.00;1.00;;;;;15.73;71.16;100581.75;4930951;28;46247;-77
2021/10/05 02:39:19;;;;;;;;;2.33;1.00;;;;;15.74;70.80;100572.88;4927580;28;46012;-76
2021/10/05 02:41:44;;;;;;;;;4.00;1.00;;;;;15.75;71.35;100571.94;4928803;28;55057;-76
2021/10/05 02:44:09;;;;;;;;;2.00;1.00;;;;;15.80;71.21;100564.78;4924317;28;59669;-76
2021/10/05 02:46:35;;;;;;;;;0.00;0.00;;;;;15.77;71.25;100559.53;4931277;28;60961;-76
2021/10/05 02:49:00;;;;;;;;;1.00;0.67;;;;;15.84;71.10;100556.72;4927476;28;54428;-76
2021/10/05 02:51:26;;;;;;;;;2.00;0.00;;;;;15.88;70.81;100541.59;4929292;28;45257;-76
2021/10/05 02:53:51;;;;;;;;;4.00;1.00;;;;;15.89;71.02;100530.03;4923134;28;46520;-75
2021/10/05 02:56:17;;;;;;;;;1.00;1.00;;;;;15.92;71.08;100536.19;4935098;28;45317;-76
2021/10/05 02:58:42;;;;;;;;;2.00;0.00;;;;;15.96;70.80;100531.69;4926950;28;53797;-76
2021/10/05 03:01:08;;;;;;;;;2.00;0.00;;;;;15.88;71.10;100505.19;4925429;28;51376;-76
2021/10/05 03:03:33;;;;;;;;;2.33;1.00;;;;;16.01;71.00;100528.97;4921653;28;62199;-75
2021/10/05 03:05:58;;;;;;;;;1.00;1.00;;;;;16.00;71.13;100522.75;4934553;28;57442;-75
2021/10/05 03:08:25;;;;;;;;;2.33;1.00;;;;;16.07;70.60;100531.53;4924631;28;45447;-76
2021/10/05 03:10:51;;;;;;;;;2.00;0.67;;;;;16.09;70.69;100525.28;4933966;28;45404;-76
2021/10/05 03:13:16;;;;;;;;;0.00;0.00;;;;;16.10;70.37;100520.81;4924185;28;61036;-76
2021/10/05 03:15:41;;;;;;;;;1.00;1.00;;;;;16.12;70.91;100527.88;4934997;28;51248;-76
2021/10/05 03:18:07;;;;;;;;;3.67;2.00;;;;;16.15;70.82;100521.63;4935649;28;54598;-76
2021/10/05 03:20:32;;;;;;;;;2.33;1.00;;;;;16.15;70.75;100514.50;4927773;28;45324;-76
2021/10/05 03:22:58;;;;;;;;;3.67;1.00;;;;;16.16;70.49;100513.59;4934736;28;58502;-76
2021/10/05 03:25:23;;;;;;;;;2.67;1.00;;;;;16.17;70.43;100480.72;4934124;28;60551;-76
2021/10/05 03:27:48;;;;;;;;;1.33;1.00;;;;;16.14;70.59;100472.81;4936093;28;45499;-76
2021/10/05 03:30:14;;;;;;;;;2.33;1.00;;;;;16.14;70.63;100464.81;4927332;28;47385;-77
2021/10/05 03:32:39;;;;;;;;;3.00;1.00;;;;;16.18;70.68;100458.50;4927393;28;46284;-76
2021/10/05 03:35:05;;;;;;;;;2.00;1.00;;;;;16.16;70.82;100454.13;4937090;28;57829;-76
2021/10/05 03:37:30;;;;;;;;;0.67;0.67;;;;;16.22;70.74;100459.34;4924759;28;45250;-76
2021/10/05 03:39:55;;;;;;;;;1.00;1.00;;;;;16.21;70.73;100447.81;4928168;28;45648;-77
2021/10/05 03:42:21;;;;;;;;;1.67;1.00;;;;;16.20;70.57;100439.84;4930834;28;59634;-76
2021/10/05 03:44:46;;;;;;;;;4.67;0.67;;;;;16.24;70.61;100446.84;4926197;28;45274;-76
2021/10/05 03:47:12;;;;;;;;;1.67;1.00;;;;;16.23;70.58;100448.66;4933951;28;45926;-76
2021/10/05 03:49:37;;;;;;;;;1.00;1.00;;;;;16.24;70.65;100438.88;4927305;28;46927;-76
2021/10/05 03:52:03;;;;;;;;;1.67;1.00;;;;;16.25;70.60;100440.66;4935702;28;46173;-75
2021/10/05 03:54:28;;;;;;;;;1.00;1.00;;;;;16.27;70.86;100445.94;4927094;28;45265;-77
2021/10/05 03:56:54;;;;;;;;;1.00;1.00;;;;;16.27;70.69;100430.84;4929694;28;51913;-76
2021/10/05 03:59:20;;;;;;;;;1.67;1.00;;;;;16.28;70.68;100431.72;4930804;28;45305;-76
2021/10/05 04:01:46;;;;;;;;;4.00;1.00;;;;;16.30;70.72;100424.56;4930169;28;45494;-76
2021/10/05 04:04:12;;;;;;;;;0.00;0.00;;;;;16.29;70.71;100429.00;4924975;28;45368;-76
2021/10/05 04:06:37;;;;;;;;;1.00;1.00;;;;;16.29;70.57;100422.81;4933626;28;45503;-76
2021/10/05 04:09:05;;;;;;;;;2.00;1.00;;;;;16.27;70.57;100408.63;4933343;28;45645;-76
2021/10/05 04:11:31;;;;;;;;;2.67;1.00;;;;;16.33;70.58;100419.19;4926395;28;47001;-76
2021/10/05 04:13:56;;;;;;;;;1.00;1.00;;;;;16.33;70.55;100408.53;4924862;28;45471;-76
2021/10/05 04:16:21;;;;;;;;;1.00;1.00;;;;;16.34;70.68;100413.81;4930370;28;57364;-77
2021/10/05 04:18:47;;;;;;;;;2.67;1.00;;;;;16.35;70.43;100406.69;4934435;28;54583;-75
2021/10/05 04:21:12;;;;;;;;;0.67;0.67;;;;;16.31;70.48;100397.03;4925939;28;59510;-76
2021/10/05 04:23:38;;;;;;;;;2.33;2.00;;;;;16.37;70.63;100394.25;4932636;28;52318;-76
2021/10/05 04:26:03;;;;;;;;;0.00;0.00;;;;;16.36;70.25;100398.69;4926524;28;45997;-77
2021/10/05 04:28:28;;;;;;;;;2.00;0.67;;;;;16.36;70.54;100395.16;4935524;28;45479;-76
2021/10/05 04:30:54;;;;;;;;;0.33;0.33;;;;;16.34;70.29;100383.63;4926347;28;46548;-75
2021/10/05 04:33:19;;;;;;;;;1.00;1.00;;;;;16.35;70.26;100372.06;4930016;28;59436;-79
2021/10/05 04:35:45;;;;;;;;;3.67;2.00;;;;;16.36;70.51;100368.50;4927978;28;45491;-82
2021/10/05 04:38:10;;;;;;;;;3.00;2.00;;;;;16.37;70.31;100364.94;4934913;28;54399;-76
2021/10/05 04:40:35;;;;;;;;;4.33;4.33;;;;;16.37;70.48;100365.81;4925851;28;60176;-76
2021/10/05 04:43:01;;;;;;;;;2.00;2.00;;;;;16.37;70.34;100360.47;4934550;28;45279;-77
2021/10/05 04:45:26;;;;;;;;;1.33;1.33;;;;;16.38;70.31;100356.88;4933993;28;46099;-80
2021/10/05 04:47:52;;;;;;;;;5.00;1.67;;;;;16.36;70.58;100356.06;4925543;28;45466;-80
2021/10/05 04:50:17;;;;;;;;;2.00;1.00;;;;;16.36;70.21;100350.72;4927383;28;47550;-79
2021/10/05 04:52:42;;;;;;;;;2.00;2.00;;;;;16.36;70.32;100348.06;4932203;28;45471;-79
2021/10/05 04:55:08;;;;;;;;;2.33;2.00;;;;;16.32;70.42;100330.38;4929046;28;45423;-76
2021/10/05 04:57:34;;;;;;;;;4.67;2.00;;;;;16.31;70.33;100319.75;4929032;28;45547;-77
2021/10/05 04:59:59;;;;;;;;;3.00;3.00;;;;;16.31;70.53;100317.97;4924784;28;45710;-77
2021/10/05 05:02:24;;;;;;;;;7.00;4.67;;;;;16.28;70.17;100307.38;4932633;28;58513;-76
2021/10/05 05:04:50;;;;;;;;;2.00;2.00;;;;;16.28;70.60;100304.69;4929252;28;45240;-78
2021/10/05 05:07:15;;;;;;;;;4.33;3.00;;;;;16.27;70.27;100312.72;4923416;28;46524;-78
2021/10/05 05:09:40;;;;;;;;;5.33;3.33;;;;;16.21;70.49;100308.41;4950164;28;52685;-76
2021/10/05 05:12:06;;;;;;;;;5.33;3.00;;;;;16.11;71.11;100299.72;4956210;28;45403;-76
2021/10/05 05:14:32;;;;;;;;;3.00;3.00;;;;;16.05;71.47;100309.63;4925250;28;45486;-76
2021/10/05 05:16:57;;;;;;;;;3.00;3.00;;;;;15.95;71.53;100311.59;4934556;28;45638;-76
2021/10/05 05:19:23;;;;;;;;;4.00;2.00;;;;;15.84;71.62;100284.31;4921455;28;47288;-75
2021/10/05 05:21:48;;;;;;;;;4.67;3.00;;;;;15.87;71.85;100302.84;4931847;28;45356;-77
2021/10/05 05:24:13;;;;;;;;;3.33;1.67;;;;;15.80;71.72;100283.47;4935030;28;45384;-75
2021/10/05 05:26:39;;;;;;;;;4.00;3.00;;;;;15.81;72.18;100279.03;4923415;28;49663;-75
2021/10/05 05:29:04;;;;;;;;;5.00;1.67;;;;;15.75;72.32;100274.69;4933490;28;46489;-75
2021/10/05 05:31:30;;;;;;;;;2.00;2.00;;;;;15.77;72.14;100272.03;4921129;28;50501;-77
2021/10/05 05:33:55;;;;;;;;;1.33;1.00;;;;;15.76;72.41;100270.25;4982066;23;52698;-77
2021/10/05 05:36:20;;;;;;;;;4.00;1.67;;;;;15.73;72.72;100276.53;4958085;23;53791;-77
2021/10/05 05:38:46;;;;;;;;;4.67;1.00;;;;;15.71;73.00;100268.56;4968853;23;60292;-75
2021/10/05 05:41:11;;;;;;;;;2.00;2.00;;;;;15.65;72.43;100260.69;5034423;28;59695;-75
2021/10/05 05:43:37;;;;;;;;;3.00;1.33;;;;;15.71;72.65;100270.31;4956242;28;45331;-75
2021/10/05 05:46:02;;;;;;;;;4.00;1.33;;;;;15.76;72.60;100265.78;4976740;28;45224;-77
2021/10/05 05:48:27;;;;;;;;;1.00;1.00;;;;;15.83;73.12;100261.25;4949977;28;60196;-76
2021/10/05 05:50:53;;;;;;;;;7.00;1.00;;;;;15.90;72.84;100260.22;4944046;28;45524;-75
2021/10/05 05:53:18;;;;;;;;;6.67;2.00;;;;;15.88;72.47;100251.38;4958673;28;45381;-75
2021/10/05 05:55:44;;;;;;;;;3.00;1.33;;;;;15.95;72.26;100250.34;4962047;28;53161;-75
2021/10/05 05:58:10;;;;;;;;;1.00;1.00;;;;;15.98;72.32;100244.97;4966695;28;46562;-75
2021/10/05 06:00:36;;;;;;;;;2.33;2.00;;;;;16.01;72.13;100250.22;4944965;28;46046;-75
2021/10/05 06:03:01;;;;;;;;;1.00;1.00;;;;;16.04;71.80;100236.84;4961785;28;50944;-75
2021/10/05 06:05:27;;;;;;;;;1.33;1.33;;;;;16.09;71.70;100229.66;4962144;28;50973;-76
2021/10/05 06:07:52;;;;;;;;;1.00;1.00;;;;;16.12;72.08;100242.88;4943847;28;47005;-75
2021/10/05 06:10:17;;;;;;;;;4.33;2.00;;;;;16.09;71.92;100226.97;4939956;28;59275;-74
2021/10/05 06:12:43;;;;;;;;;3.00;2.00;;;;;16.16;71.82;100235.72;4950543;28;46255;-75
2021/10/05 06:15:10;;;;;;;;;4.00;1.00;;;;;16.13;71.78;100212.66;4968501;28;45394;-75
2021/10/05 06:17:42;;;;;;;;;1.00;1.00;;;;;16.17;71.43;100208.16;4970384;28;46593;-75
2021/10/05 06:20:08;;;;;;;;;5.33;1.33;;;;;16.18;71.99;100204.56;4946604;28;45429;-75
2021/10/05 06:22:34;;;;;;;;;1.33;1.00;;;;;16.14;72.74;100202.88;4964108;28;45595;-74
2021/10/05 06:24:59;;;;;;;;;5.00;3.00;;;;;16.19;72.76;100188.59;4965017;28;45456;-75
2021/10/05 06:27:25;;;;;;;;;3.33;1.00;;;;;16.18;71.84;100178.81;4972209;28;46379;-73
2021/10/05 06:29:50;;;;;;;;;1.00;1.00;;;;;16.23;72.25;100181.38;4965796;28;60421;-75
2021/10/05 06:32:16;;;;;;;;;2.67;1.00;;;;;16.22;72.46;100179.63;4949931;28;46308;-76
2021/10/05 06:34:41;;;;;;;;;1.00;1.00;;;;;16.29;72.73;100196.34;4968568;28;47847;-77
2021/10/05 06:37:06;;;;;;;;;3.00;2.00;;;;;16.29;72.31;100191.03;4967339;28;46457;-79
2021/10/05 06:39:32;;;;;;;;;1.00;1.00;;;;;16.27;72.46;100192.84;4968232;28;56900;-78
2021/10/05 06:41:57;;;;;;;;;1.67;1.00;;;;;16.30;72.16;100203.41;4953302;28;45497;-80
2021/10/05 06:44:23;;;;;;;;;3.33;2.00;;;;;16.31;72.00;100202.53;4950524;28;45259;-81
2021/10/05 06:46:48;;;;;;;;;2.33;2.00;;;;;16.26;72.05;100194.66;4953413;28;47246;-81
2021/10/05 06:49:14;;;;;;;;;1.00;1.00;;;;;16.30;73.11;100214.97;4975831;28;56282;-78
2021/10/05 06:51:39;;;;;;;;;1.00;1.00;;;;;16.26;72.93;100188.44;4969351;28;56691;-78
2021/10/05 06:54:04;;;;;;;;;3.00;2.00;;;;;16.29;73.62;100186.56;4969486;28;52003;-79
2021/10/05 06:56:30;;;;;;;;;3.00;3.00;;;;;16.30;73.38;100183.00;5046308;28;45993;-78
2021/10/05 06:58:55;;;;;;;;;2.00;1.00;;;;;16.32;74.00;100182.97;4950079;28;45545;-78
2021/10/05 07:01:21;;;;;;;;;1.67;1.00;;;;;16.31;73.27;100167.91;4959595;28;45592;-78
2021/10/05 07:03:46;;;;;;;;;1.67;1.67;;;;;16.31;73.81;100182.09;4971636;28;50177;-79
2021/10/05 07:06:12;;;;;;;;;2.67;1.67;;;;;16.30;74.21;100176.78;4951356;28;56853;-79
2021/10/05 07:08:39;;;;;;;;;1.00;1.00;;;;;16.30;73.95;100156.38;5052868;28;45443;-79
2021/10/05 07:11:04;;;;;;;;;2.00;2.00;;;;;16.35;74.25;100156.25;5048711;28;45386;-78
2021/10/05 07:13:30;;;;;;;;;2.33;1.00;;;;;16.35;74.13;100151.81;4971679;28;45342;-77
2021/10/05 07:15:56;;;;;;;;;3.00;1.67;;;;;16.35;75.00;100149.16;5025950;28;46651;-78
2021/10/05 07:18:21;;;;;;;;;2.00;2.00;;;;;16.37;74.28;100154.44;5016126;28;45338;-78
2021/10/05 07:20:46;;;;;;;;;4.00;1.00;;;;;16.36;74.67;100145.56;5015951;28;45394;-80
2021/10/05 07:23:12;;;;;;;;;1.67;1.00;;;;;16.35;74.90;100142.91;4978560;28;52329;-79
2021/10/05 07:25:37;;;;;;;;;3.00;1.00;;;;;16.35;75.11;100132.25;5005864;22;57098;-79
2021/10/05 07:28:03;;;;;;;;;1.00;1.00;;;;;16.38;74.85;100132.19;4963681;28;46286;-80
2021/10/05 07:30:28;;;;;;;;;1.33;1.00;;;;;16.39;74.86;100116.16;5061350;23;45432;-79
2021/10/05 07:32:59;;;;;;;;;1.00;1.00;;;;;16.43;74.76;100103.66;4955502;28;45429;-80
2021/10/05 07:35:24;;;;;;;;;4.00;1.00;;;;;16.43;75.10;100098.31;4949794;28;47339;-79
2021/10/05 07:37:50;;;;;;;;;2.67;1.00;;;;;16.43;74.67;100103.66;4985556;28;45880;-78
2021/10/05 07:40:20;;;;;;;;;3.00;1.33;;;;;16.44;74.89;100087.63;4943385;28;53675;-80
2021/10/05 07:42:46;;;;;;;;;1.33;1.33;;;;;16.41;75.12;100100.16;4998544;23;45583;-81
2021/10/05 07:45:12;;;;;;;;;1.67;1.00;;;;;16.36;76.19;100078.09;4928355;28;48136;-77
2021/10/05 07:47:37;;;;;;;;;2.00;2.00;;;;;16.33;76.08;100075.47;4925288;28;58317;-79
2021/10/05 07:50:03;;;;;;;;;6.00;6.00;;;;;16.28;76.31;100064.06;4923009;28;45882;-83
2021/10/05 07:52:28;;;;;;;;;1.67;1.33;;;;;16.26;76.21;100066.78;4920992;28;45442;-80
2021/10/05 07:54:54;;;;;;;;;1.00;1.00;;;;;16.22;76.69;100057.97;4922950;28;46527;-80
2021/10/05 07:57:19;;;;;;;;;0.00;0.00;;;;;16.22;76.38;100065.97;4936022;28;49356;-80
2021/10/05 07:59:45;;;;;;;;;1.67;1.00;;;;;16.22;76.68;100065.97;4927301;28;57448;-79
2021/10/05 08:02:10;;;;;;;;;1.00;1.00;;;;;16.27;75.87;100075.63;4931162;28;46016;-82
2021/10/05 08:04:36;;;;;;;;;1.67;1.67;;;;;16.29;75.73;100066.69;4929808;28;45671;-79
2021/10/05 08:07:01;;;;;;;;;2.67;2.00;;;;;16.29;76.62;100049.81;4928287;28;50078;-79
2021/10/05 08:09:26;;;;;;;;;1.00;1.00;;;;;16.33;75.94;100065.69;4921859;28;52526;-81
2021/10/05 08:11:52;;;;;;;;;0.67;0.67;;;;;16.32;75.97;100057.75;4928427;28;45528;-79
2021/10/05 08:14:17;;;;;;;;;1.00;1.00;;;;;16.36;76.30;100075.41;4923948;28;63427;-81
2021/10/05 08:16:44;;;;;;;;;1.33;1.00;;;;;16.39;75.87;100080.66;4923806;28;48223;-80
2021/10/05 08:19:10;;;;;;;;;1.00;1.00;;;;;16.41;76.00;100066.41;4922185;28;45476;-79
2021/10/05 08:22:13;;;;;;;;;0.33;0.33;;;;;16.46;75.74;100077.81;4922678;28;51128;-79
2021/10/05 08:24:38;;;;;;;;;4.00;1.00;;;;;16.52;76.04;100060.78;4926294;28;48051;-81
2021/10/05 08:27:07;;;;;;;;;0.00;0.00;;;;;16.52;75.59;100055.47;4920200;28;45550;-80
2021/10/05 08:29:33;;;;;;;;;2.00;0.33;;;;;16.60;75.28;100053.47;4928486;28;45453;-79
2021/10/05 08:31:58;;;;;;;;;2.00;1.00;;;;;16.63;75.50;100032.06;4926081;28;45663;-81
2021/10/05 08:34:24;;;;;;;;;2.00;0.67;;;;;16.71;75.14;100047.88;4927037;28;63904;-75
2021/10/05 08:36:49;;;;;;;;;0.00;0.00;;;;;16.73;74.81;100038.06;4921293;28;61482;-74
2021/10/05 08:39:16;;;;;;;;;0.67;0.67;;;;;16.69;74.88;100031.91;4928862;28;45461;-75
2021/10/05 08:41:44;;;;;;;;;1.00;1.00;;;;;16.71;74.68;100032.75;4924967;28;45249;-75
2021/10/05 08:44:10;;;;;;;;;1.00;1.00;;;;;16.64;74.79;100028.47;4919814;28;45804;-76
2021/10/05 08:46:37;;;;;;;;;0.67;0.67;;;;;16.70;74.75;100032.78;4921119;28;45787;-75
2021/10/05 08:49:02;;;;;;;;;1.00;1.00;;;;;16.66;74.79;100029.31;4923672;28;45946;-77
2021/10/05 08:51:27;;;;;;;;;2.00;0.33;;;;;16.62;74.68;100014.34;4919955;28;45703;-74
2021/10/05 08:53:53;;;;;;;;;0.00;0.00;;;;;16.63;74.76;100053.41;4930356;28;56870;-75
2021/10/05 08:56:18;;;;;;;;;2.00;1.00;;;;;16.62;75.88;100080.97;4931807;28;56578;-74
2021/10/05 08:58:44;;;;;;;;;1.00;1.00;;;;;16.52;77.83;100095.44;4922842;28;53712;-74
2021/10/05 09:01:18;;;;;;;;;1.00;0.00;;;;;16.37;76.38;100099.34;4927645;28;56089;-75
2021/10/05 09:03:53;;;;;;;;;0.00;0.00;;;;;16.23;76.99;100099.69;4923166;28;45978;-75
2021/10/05 09:06:21;;;;;;;;;0.00;0.00;;;;;16.13;76.40;100106.13;4927032;28;45615;-74
2021/10/05 09:08:47;;;;;;;;;0.00;0.00;;;;;16.03;76.66;100120.56;4919448;28;45399;-74
2021/10/05 09:11:15;;;;;;;;;0.00;0.00;;;;;15.94;76.74;100131.44;4928168;28;45756;-75
2021/10/05 09:13:42;;;;;;;;;2.00;0.00;;;;;15.80;77.00;100136.19;4930100;28;45711;-75
2021/10/05 09:16:28;;;;;;;;;3.00;0.00;;;;;15.76;77.04;100156.66;4921620;28;45384;-76
2021/10/05 09:18:59;;;;;;;;;0.67;0.67;;;;;15.70;76.73;100164.78;4925714;28;45506;-77
2021/10/05 09:21:31;;;;;;;;;1.67;0.00;;;;;15.66;77.08;100166.66;4929242;28;45269;-75
2021/10/05 09:24:08;;;;;;;;;0.33;0.33;;;;;15.72;77.03;100165.63;4925977;28;47489;-76
2021/10/05 09:26:51;;;;;;;;;0.00;0.00;;;;;15.78;76.51;100165.50;4920652;28;45449;-75
2021/10/05 09:29:24;;;;;;;;;0.00;0.00;;;;;15.85;76.44;100167.13;4929454;28;45440;-76
2021/10/05 09:31:52;;;;;;;;;0.67;0.67;;;;;15.89;76.20;100167.94;4928322;28;45533;-76
2021/10/05 09:34:18;;;;;;;;;0.00;0.00;;;;;15.86;75.88;100158.22;5012561;28;46897;-78
2021/10/05 09:36:43;;;;;;;;;4.00;0.00;;;;;15.93;76.19;100180.28;4926410;28;45515;-77
2021/10/05 09:39:09;;;;;;;;;0.00;0.00;;;;;15.97;75.29;100184.63;4933881;28;45419;-76
2021/10/05 09:41:34;;;;;;;;;0.33;0.00;;;;;15.93;75.52;100189.16;4930281;28;45443;-76
2021/10/05 09:44:04;;;;;;;;;0.00;0.00;;;;;15.92;75.27;100191.81;4929257;28;46961;-77
2021/10/05 09:46:30;;;;;;;;;2.33;0.00;;;;;15.88;75.44;100187.50;4936875;28;45481;-77
2021/10/05 09:49:00;;;;;;;;;1.00;1.00;;;;;15.93;75.41;100201.59;4948809;28;45540;-76
2021/10/05 09:51:26;;;;;;;;;1.00;0.67;;;;;15.95;75.25;100202.41;4930580;28;45550;-76
2021/10/05 09:53:52;;;;;;;;;2.67;0.67;;;;;16.02;75.75;100198.72;4941436;28;46204;-76
2021/10/05 09:56:19;;;;;;;;;1.00;1.00;;;;;16.10;75.08;100196.78;4931295;28;45426;-76
2021/10/05 09:58:44;;;;;;;;;1.00;0.00;;;;;16.16;74.69;100198.41;4916755;28;45879;-78
2021/10/05 10:01:09;;;;;;;;;6.00;0.67;;;;;16.24;74.65;100202.69;4933017;28;49286;-76
2021/10/05 10:03:36;;;;;;;;;0.00;0.00;;;;;16.29;74.96;100201.66;4927066;28;47833;-78
2021/10/05 10:06:01;;;;;;;;;1.00;1.00;;;;;16.37;74.28;100215.72;4935215;28;45444;-76
2021/10/05 10:08:29;;;;;;;;;0.00;0.00;;;;;16.35;74.61;100207.75;4923958;28;53852;-77
2021/10/05 10:10:54;;;;;;;;;1.00;0.00;;;;;16.45;74.18;100219.94;4924984;28;46955;-78
2021/10/05 10:13:20;;;;;;;;;0.00;0.00;;;;;16.56;74.02;100224.16;4962150;28;61297;-77
2021/10/05 10:15:47;;;;;;;;;3.00;1.00;;;;;16.68;73.70;100235.41;5017439;28;45411;-78
2021/10/05 10:18:15;;;;;;;;;2.00;0.00;;;;;16.83;73.63;100238.66;4919954;28;45439;-77
2021/10/05 10:20:53;;;;;;;;;0.00;0.00;;;;;16.92;73.31;100238.44;4972539;28;45605;-77
2021/10/05 10:23:20;;;;;;;;;1.00;0.00;;;;;17.00;73.10;100244.47;4942197;28;45703;-76
2021/10/05 10:26:04;;;;;;;;;3.00;0.00;;;;;17.05;72.17;100252.34;4935476;28;45477;-75
2021/10/05 10:28:33;;;;;;;;;1.00;0.00;;;;;17.09;72.44;100259.34;4936784;28;45210;-75
2021/10/05 10:31:03;;;;;;;;;2.00;0.00;;;;;17.18;72.50;100257.31;4936492;28;45375;-76
2021/10/05 10:33:40;;;;;;;;;0.67;0.00;;;;;17.24;72.22;100259.84;4933870;28;47205;-76
2021/10/05 10:36:07;;;;;;;;;2.00;0.00;;;;;17.25;71.84;100258.91;4957707;28;45478;-77
2021/10/05 10:38:32;;;;;;;;;1.00;1.00;;;;;17.27;71.29;100254.44;4965319;28;51926;-77
2021/10/05 10:40:58;;;;;;;;;0.00;0.00;;;;;17.29;71.57;100257.06;4930808;28;45545;-78
2021/10/05 10:43:25;;;;;;;;;0.00;0.00;;;;;17.42;71.31;100258.50;4929780;28;47440;-78
2021/10/05 10:45:56;;;;;;;;;0.00;0.00;;;;;17.65;70.72;100270.34;4946533;28;45441;-77
2021/10/05 10:48:35;;;;;;;;;0.00;0.00;;;;;17.74;70.42;100276.38;4930500;28;45219;-76
2021/10/05 10:51:13;;;;;;;;;3.33;0.00;;;;;17.83;68.85;100274.34;4976050;28;45419;-76
2021/10/05 10:53:39;;;;;;;;;4.00;0.67;;;;;17.87;68.93;100286.69;4987585;28;47776;-76
2021/10/05 10:56:05;;;;;;;;;1.00;0.00;;;;;17.84;68.79;100298.31;4933827;28;45313;-77
2021/10/05 10:58:41;;;;;;;;;0.00;0.00;;;;;17.76;67.92;100303.88;4922552;28;45168;-77
2021/10/05 11:01:10;;;;;;;;;0.00;0.00;;;;;17.78;68.78;100299.38;4908374;28;45469;-76
2021/10/05 11:03:35;;;;;;;;;3.67;0.00;;;;;17.79;67.53;100294.94;4934910;28;46756;-77
2021/10/05 11:06:01;;;;;;;;;5.00;2.33;;;;;17.80;67.53;100302.91;4935035;28;45226;-76
2021/10/05 11:08:26;;;;;;;;;0.00;0.00;;;;;17.74;66.74;100297.72;4960789;28;45395;-76
2021/10/05 11:10:52;;;;;;;;;0.00;0.00;;;;;17.67;66.71;100312.09;4962909;28;50133;-78
2021/10/05 11:13:17;;;;;;;;;2.00;0.33;;;;;17.60;66.87;100312.31;4961058;28;46624;-76
2021/10/05 11:15:48;;;;;;;;;0.00;0.00;;;;;17.59;67.15;100310.56;4964144;28;45462;-78
2021/10/05 11:18:14;;;;;;;;;0.33;0.33;;;;;17.65;66.73;100311.28;4928230;28;45241;-76
2021/10/05 11:20:48;;;;;;;;;4.00;0.00;;;;;17.77;66.76;100323.47;4942676;28;45465;-76